sensor_id;sensor_type;location;lat;lon;timestamp;P1;durP1;ratioP1;P2;durP2;ratioP2
1204;SDS011;592;48.764;9.174;2023-05-27T00:00:55;9.10;;;6.30;;
1204;SDS011;592;48.764;9.174;2023-05-27T00:03:22;13.53;;;6.37;;
1204;SDS011;592;48.764;9.174;2023-05-27T00:05:56;10.87;;;7.20;;
1204;SDS011;592;48.764;9.174;2023-05-27T00:08:25;13.80;;;6.70;;
1204;SDS011;592;48.764;9.174;2023-05-27T00:10:52;12.63;;;7.73;;
1204;SDS011;592;48.764;9.174;2023-05-27T00:13:18;10.80;;;6.23;;
1204;SDS011;592;48.764;9.174;2023-05-27T00:15:45;12.00;;;7.20;;
1204;SDS011;592;48.764;9.174;2023-05-27T00:18:12;9.50;;;6.90;;
1204;SDS011;592;48.764;9.174;2023-05-27T00:20:38;11.57;;;6.93;;
1204;SDS011;592;48.764;9.174;2023-05-27T00:23:06;11.77;;;6.87;;
1204;SDS011;592;48.764;9.174;2023-05-27T00:25:34;11.57;;;6.80;;
1204;SDS011;592;48.764;9.174;2023-05-27T00:28:01;12.53;;;6.23;;
1204;SDS011;592;48.764;9.174;2023-05-27T00:30:28;9.43;;;5.70;;
1204;SDS011;592;48.764;9.174;2023-05-27T00:32:55;11.27;;;6.60;;
1204;SDS011;592;48.764;9.174;2023-05-27T00:35:23;9.67;;;6.27;;
1204;SDS011;592;48.764;9.174;2023-05-27T00:37:50;11.70;;;6.03;;
1204;SDS011;592;48.764;9.174;2023-05-27T00:40:18;14.00;;;6.30;;
1204;SDS011;592;48.764;9.174;2023-05-27T00:42:49;9.00;;;5.93;;
1204;SDS011;592;48.764;9.174;2023-05-27T00:45:15;11.13;;;6.03;;
1204;SDS011;592;48.764;9.174;2023-05-27T00:47:42;10.10;;;5.67;;
1204;SDS011;592;48.764;9.174;2023-05-27T00:50:09;9.63;;;5.83;;
1204;SDS011;592;48.764;9.174;2023-05-27T00:52:36;15.70;;;6.10;;
1204;SDS011;592;48.764;9.174;2023-05-27T00:55:03;8.87;;;5.17;;
1204;SDS011;592;48.764;9.174;2023-05-27T00:57:32;15.10;;;6.13;;
1204;SDS011;592;48.764;9.174;2023-05-27T01:00:00;15.63;;;6.40;;
1204;SDS011;592;48.764;9.174;2023-05-27T01:02:27;14.10;;;6.40;;
1204;SDS011;592;48.764;9.174;2023-05-27T01:04:55;11.83;;;5.70;;
1204;SDS011;592;48.764;9.174;2023-05-27T01:07:22;10.43;;;6.03;;
1204;SDS011;592;48.764;9.174;2023-05-27T01:09:58;13.60;;;5.43;;
1204;SDS011;592;48.764;9.174;2023-05-27T01:12:31;13.27;;;6.17;;
1204;SDS011;592;48.764;9.174;2023-05-27T01:15:05;13.67;;;6.40;;
1204;SDS011;592;48.764;9.174;2023-05-27T01:17:33;16.30;;;6.07;;
1204;SDS011;592;48.764;9.174;2023-05-27T01:20:03;12.70;;;5.83;;
1204;SDS011;592;48.764;9.174;2023-05-27T01:22:32;10.47;;;5.33;;
1204;SDS011;592;48.764;9.174;2023-05-27T01:25:01;13.33;;;5.47;;
1204;SDS011;592;48.764;9.174;2023-05-27T01:27:28;12.60;;;5.50;;
1204;SDS011;592;48.764;9.174;2023-05-27T01:29:55;13.17;;;6.53;;
1204;SDS011;592;48.764;9.174;2023-05-27T01:32:24;9.60;;;5.90;;
1204;SDS011;592;48.764;9.174;2023-05-27T01:34:55;9.77;;;5.97;;
1204;SDS011;592;48.764;9.174;2023-05-27T01:37:25;10.47;;;5.00;;
1204;SDS011;592;48.764;9.174;2023-05-27T01:39:58;11.70;;;5.90;;
1204;SDS011;592;48.764;9.174;2023-05-27T01:42:25;15.00;;;5.83;;
1204;SDS011;592;48.764;9.174;2023-05-27T01:44:52;11.63;;;5.57;;
1204;SDS011;592;48.764;9.174;2023-05-27T01:47:21;10.13;;;5.77;;
1204;SDS011;592;48.764;9.174;2023-05-27T01:49:48;9.73;;;5.83;;
1204;SDS011;592;48.764;9.174;2023-05-27T01:52:14;11.30;;;5.40;;
1204;SDS011;592;48.764;9.174;2023-05-27T01:54:41;11.57;;;5.30;;
1204;SDS011;592;48.764;9.174;2023-05-27T01:57:09;12.93;;;5.87;;
1204;SDS011;592;48.764;9.174;2023-05-27T01:59:36;13.53;;;5.60;;
1204;SDS011;592;48.764;9.174;2023-05-27T02:02:02;9.13;;;5.50;;
1204;SDS011;592;48.764;9.174;2023-05-27T02:04:30;17.50;;;5.43;;
1204;SDS011;592;48.764;9.174;2023-05-27T02:06:56;14.03;;;5.97;;
1204;SDS011;592;48.764;9.174;2023-05-27T02:09:23;11.70;;;5.97;;
1204;SDS011;592;48.764;9.174;2023-05-27T02:11:50;14.17;;;6.33;;
1204;SDS011;592;48.764;9.174;2023-05-27T02:14:18;11.87;;;5.20;;
1204;SDS011;592;48.764;9.174;2023-05-27T02:16:45;10.07;;;5.87;;
1204;SDS011;592;48.764;9.174;2023-05-27T02:19:12;15.80;;;5.93;;
1204;SDS011;592;48.764;9.174;2023-05-27T02:21:39;12.23;;;5.77;;
1204;SDS011;592;48.764;9.174;2023-05-27T02:24:06;11.10;;;5.70;;
1204;SDS011;592;48.764;9.174;2023-05-27T02:26:33;12.83;;;5.70;;
1204;SDS011;592;48.764;9.174;2023-05-27T02:29:00;15.00;;;5.83;;
1204;SDS011;592;48.764;9.174;2023-05-27T02:31:28;12.97;;;5.27;;
1204;SDS011;592;48.764;9.174;2023-05-27T02:33:55;12.90;;;5.60;;
1204;SDS011;592;48.764;9.174;2023-05-27T02:36:21;14.03;;;5.63;;
1204;SDS011;592;48.764;9.174;2023-05-27T02:38:49;10.80;;;5.40;;
1204;SDS011;592;48.764;9.174;2023-05-27T02:41:15;10.83;;;6.30;;
1204;SDS011;592;48.764;9.174;2023-05-27T02:43:42;12.07;;;6.00;;
1204;SDS011;592;48.764;9.174;2023-05-27T02:46:10;11.33;;;5.57;;
1204;SDS011;592;48.764;9.174;2023-05-27T02:48:38;13.50;;;5.80;;
1204;SDS011;592;48.764;9.174;2023-05-27T02:51:05;16.70;;;6.03;;
1204;SDS011;592;48.764;9.174;2023-05-27T02:53:32;17.90;;;6.67;;
1204;SDS011;592;48.764;9.174;2023-05-27T02:55:59;12.70;;;5.43;;
1204;SDS011;592;48.764;9.174;2023-05-27T02:58:26;15.13;;;5.83;;
1204;SDS011;592;48.764;9.174;2023-05-27T03:00:52;13.40;;;6.30;;
1204;SDS011;592;48.764;9.174;2023-05-27T03:03:19;13.57;;;6.17;;
1204;SDS011;592;48.764;9.174;2023-05-27T03:05:47;11.27;;;5.53;;
1204;SDS011;592;48.764;9.174;2023-05-27T03:08:14;10.03;;;6.00;;
1204;SDS011;592;48.764;9.174;2023-05-27T03:10:41;15.00;;;5.73;;
1204;SDS011;592;48.764;9.174;2023-05-27T03:13:08;13.57;;;5.90;;
1204;SDS011;592;48.764;9.174;2023-05-27T03:15:35;12.33;;;5.70;;
1204;SDS011;592;48.764;9.174;2023-05-27T03:18:01;13.47;;;5.47;;
1204;SDS011;592;48.764;9.174;2023-05-27T03:20:29;13.03;;;5.63;;
1204;SDS011;592;48.764;9.174;2023-05-27T03:22:57;13.27;;;5.60;;
1204;SDS011;592;48.764;9.174;2023-05-27T03:25:24;13.30;;;5.57;;
1204;SDS011;592;48.764;9.174;2023-05-27T03:27:50;15.17;;;5.60;;
1204;SDS011;592;48.764;9.174;2023-05-27T03:30:18;12.17;;;5.53;;
1204;SDS011;592;48.764;9.174;2023-05-27T03:32:45;12.40;;;5.50;;
1204;SDS011;592;48.764;9.174;2023-05-27T03:35:12;12.50;;;5.37;;
1204;SDS011;592;48.764;9.174;2023-05-27T03:37:38;12.07;;;5.73;;
1204;SDS011;592;48.764;9.174;2023-05-27T03:40:07;10.97;;;5.33;;
1204;SDS011;592;48.764;9.174;2023-05-27T03:42:35;9.90;;;4.97;;
1204;SDS011;592;48.764;9.174;2023-05-27T03:45:01;12.67;;;6.17;;
1204;SDS011;592;48.764;9.174;2023-05-27T03:47:29;13.60;;;6.03;;
1204;SDS011;592;48.764;9.174;2023-05-27T03:49:56;16.57;;;6.60;;
1204;SDS011;592;48.764;9.174;2023-05-27T03:52:22;18.83;;;6.00;;
1204;SDS011;592;48.764;9.174;2023-05-27T03:54:49;16.43;;;5.80;;
1204;SDS011;592;48.764;9.174;2023-05-27T03:57:17;16.97;;;5.80;;
1204;SDS011;592;48.764;9.174;2023-05-27T03:59:44;10.10;;;5.43;;
1204;SDS011;592;48.764;9.174;2023-05-27T04:02:10;12.30;;;5.67;;
1204;SDS011;592;48.764;9.174;2023-05-27T04:04:37;12.33;;;5.67;;
1204;SDS011;592;48.764;9.174;2023-05-27T04:07:04;12.47;;;6.00;;
1204;SDS011;592;48.764;9.174;2023-05-27T04:09:30;11.83;;;5.17;;
1204;SDS011;592;48.764;9.174;2023-05-27T04:11:57;11.13;;;5.57;;
1204;SDS011;592;48.764;9.174;2023-05-27T04:14:25;11.83;;;5.60;;
1204;SDS011;592;48.764;9.174;2023-05-27T04:16:52;12.30;;;5.80;;
1204;SDS011;592;48.764;9.174;2023-05-27T04:19:19;19.97;;;6.47;;
1204;SDS011;592;48.764;9.174;2023-05-27T04:21:47;10.87;;;5.40;;
1204;SDS011;592;48.764;9.174;2023-05-27T04:24:14;18.73;;;5.47;;
1204;SDS011;592;48.764;9.174;2023-05-27T04:26:40;12.50;;;5.07;;
1204;SDS011;592;48.764;9.174;2023-05-27T04:29:07;15.40;;;5.83;;
1204;SDS011;592;48.764;9.174;2023-05-27T04:31:38;17.23;;;5.80;;
1204;SDS011;592;48.764;9.174;2023-05-27T04:34:04;14.17;;;6.50;;
1204;SDS011;592;48.764;9.174;2023-05-27T04:36:32;14.03;;;5.97;;
1204;SDS011;592;48.764;9.174;2023-05-27T04:38:59;16.00;;;6.00;;
1204;SDS011;592;48.764;9.174;2023-05-27T04:41:27;15.97;;;5.83;;
1204;SDS011;592;48.764;9.174;2023-05-27T04:43:54;14.50;;;5.77;;
1204;SDS011;592;48.764;9.174;2023-05-27T04:46:22;14.07;;;5.63;;
1204;SDS011;592;48.764;9.174;2023-05-27T04:48:51;18.87;;;6.40;;
1204;SDS011;592;48.764;9.174;2023-05-27T04:51:18;12.30;;;6.13;;
1204;SDS011;592;48.764;9.174;2023-05-27T04:53:45;15.63;;;6.23;;
1204;SDS011;592;48.764;9.174;2023-05-27T04:56:12;15.40;;;5.57;;
1204;SDS011;592;48.764;9.174;2023-05-27T04:58:40;14.97;;;6.20;;
1204;SDS011;592;48.764;9.174;2023-05-27T05:01:08;15.13;;;5.60;;
1204;SDS011;592;48.764;9.174;2023-05-27T05:03:42;13.87;;;6.60;;
1204;SDS011;592;48.764;9.174;2023-05-27T05:06:18;15.67;;;6.20;;
1204;SDS011;592;48.764;9.174;2023-05-27T05:08:46;12.87;;;6.00;;
1204;SDS011;592;48.764;9.174;2023-05-27T05:11:13;14.70;;;5.97;;
1204;SDS011;592;48.764;9.174;2023-05-27T05:13:40;12.17;;;5.73;;
1204;SDS011;592;48.764;9.174;2023-05-27T05:16:06;15.87;;;6.17;;
1204;SDS011;592;48.764;9.174;2023-05-27T05:18:33;16.37;;;5.63;;
1204;SDS011;592;48.764;9.174;2023-05-27T05:21:00;15.20;;;6.30;;
1204;SDS011;592;48.764;9.174;2023-05-27T05:23:28;16.33;;;6.93;;
1204;SDS011;592;48.764;9.174;2023-05-27T05:25:55;16.70;;;5.90;;
1204;SDS011;592;48.764;9.174;2023-05-27T05:28:23;12.93;;;5.70;;
1204;SDS011;592;48.764;9.174;2023-05-27T05:30:50;15.33;;;5.37;;
1204;SDS011;592;48.764;9.174;2023-05-27T05:33:17;15.90;;;5.50;;
1204;SDS011;592;48.764;9.174;2023-05-27T05:35:43;12.10;;;6.17;;
1204;SDS011;592;48.764;9.174;2023-05-27T05:38:10;17.97;;;6.10;;
1204;SDS011;592;48.764;9.174;2023-05-27T05:40:40;14.50;;;5.90;;
1204;SDS011;592;48.764;9.174;2023-05-27T05:43:13;11.70;;;5.70;;
1204;SDS011;592;48.764;9.174;2023-05-27T05:45:40;13.57;;;5.73;;
1204;SDS011;592;48.764;9.174;2023-05-27T05:48:07;14.37;;;6.33;;
1204;SDS011;592;48.764;9.174;2023-05-27T05:50:34;16.30;;;5.70;;
1204;SDS011;592;48.764;9.174;2023-05-27T05:53:00;15.77;;;6.00;;
1204;SDS011;592;48.764;9.174;2023-05-27T05:55:27;14.57;;;6.40;;
1204;SDS011;592;48.764;9.174;2023-05-27T05:57:55;14.83;;;6.60;;
1204;SDS011;592;48.764;9.174;2023-05-27T06:00:22;15.23;;;5.50;;
1204;SDS011;592;48.764;9.174;2023-05-27T06:02:49;13.70;;;6.67;;
1204;SDS011;592;48.764;9.174;2023-05-27T06:05:15;13.63;;;6.40;;
1204;SDS011;592;48.764;9.174;2023-05-27T06:07:43;17.07;;;6.27;;
1204;SDS011;592;48.764;9.174;2023-05-27T06:10:10;13.20;;;5.87;;
1204;SDS011;592;48.764;9.174;2023-05-27T06:12:37;13.60;;;6.83;;
1204;SDS011;592;48.764;9.174;2023-05-27T06:15:05;13.50;;;5.80;;
1204;SDS011;592;48.764;9.174;2023-05-27T06:17:33;17.47;;;6.80;;
1204;SDS011;592;48.764;9.174;2023-05-27T06:20:00;17.03;;;6.83;;
1204;SDS011;592;48.764;9.174;2023-05-27T06:22:27;17.30;;;6.13;;
1204;SDS011;592;48.764;9.174;2023-05-27T06:24:54;17.43;;;6.27;;
1204;SDS011;592;48.764;9.174;2023-05-27T06:27:20;18.60;;;6.03;;
1204;SDS011;592;48.764;9.174;2023-05-27T06:29:47;12.83;;;6.03;;
1204;SDS011;592;48.764;9.174;2023-05-27T06:32:15;14.27;;;6.63;;
1204;SDS011;592;48.764;9.174;2023-05-27T06:34:42;13.87;;;6.47;;
1204;SDS011;592;48.764;9.174;2023-05-27T06:37:08;14.00;;;6.00;;
1204;SDS011;592;48.764;9.174;2023-05-27T06:39:35;14.10;;;6.40;;
1204;SDS011;592;48.764;9.174;2023-05-27T06:42:02;12.70;;;5.43;;
1204;SDS011;592;48.764;9.174;2023-05-27T06:44:29;19.20;;;6.83;;
1204;SDS011;592;48.764;9.174;2023-05-27T06:46:56;18.53;;;6.40;;
1204;SDS011;592;48.764;9.174;2023-05-27T06:49:24;13.07;;;5.77;;
1204;SDS011;592;48.764;9.174;2023-05-27T06:51:50;16.07;;;6.40;;
1204;SDS011;592;48.764;9.174;2023-05-27T06:54:17;13.63;;;6.03;;
1204;SDS011;592;48.764;9.174;2023-05-27T06:56:44;15.20;;;5.80;;
1204;SDS011;592;48.764;9.174;2023-05-27T06:59:10;14.17;;;6.20;;
1204;SDS011;592;48.764;9.174;2023-05-27T07:01:37;14.93;;;6.50;;
1204;SDS011;592;48.764;9.174;2023-05-27T07:04:04;18.43;;;6.60;;
1204;SDS011;592;48.764;9.174;2023-05-27T07:06:32;34.77;;;7.53;;
1204;SDS011;592;48.764;9.174;2023-05-27T07:08:59;14.07;;;6.50;;
1204;SDS011;592;48.764;9.174;2023-05-27T07:11:25;11.57;;;5.13;;
1204;SDS011;592;48.764;9.174;2023-05-27T07:13:52;20.90;;;7.20;;
1204;SDS011;592;48.764;9.174;2023-05-27T07:16:19;14.27;;;6.60;;
1204;SDS011;592;48.764;9.174;2023-05-27T07:18:46;15.07;;;6.73;;
1204;SDS011;592;48.764;9.174;2023-05-27T07:21:12;16.60;;;6.10;;
1204;SDS011;592;48.764;9.174;2023-05-27T07:23:40;14.73;;;5.60;;
1204;SDS011;592;48.764;9.174;2023-05-27T07:26:07;13.90;;;6.43;;
1204;SDS011;592;48.764;9.174;2023-05-27T07:28:34;15.27;;;6.50;;
1204;SDS011;592;48.764;9.174;2023-05-27T07:31:02;13.53;;;6.50;;
1204;SDS011;592;48.764;9.174;2023-05-27T07:33:30;14.70;;;6.33;;
1204;SDS011;592;48.764;9.174;2023-05-27T07:35:59;12.90;;;6.10;;
1204;SDS011;592;48.764;9.174;2023-05-27T07:38:28;12.90;;;6.57;;
1204;SDS011;592;48.764;9.174;2023-05-27T07:40:56;17.00;;;6.80;;
1204;SDS011;592;48.764;9.174;2023-05-27T07:43:23;12.60;;;5.57;;
1204;SDS011;592;48.764;9.174;2023-05-27T07:45:50;12.70;;;6.40;;
1204;SDS011;592;48.764;9.174;2023-05-27T07:48:16;13.73;;;6.50;;
1204;SDS011;592;48.764;9.174;2023-05-27T07:50:43;11.20;;;5.50;;
1204;SDS011;592;48.764;9.174;2023-05-27T07:53:10;11.17;;;6.07;;
1204;SDS011;592;48.764;9.174;2023-05-27T07:55:36;12.20;;;6.13;;
1204;SDS011;592;48.764;9.174;2023-05-27T07:58:04;15.83;;;6.20;;
1204;SDS011;592;48.764;9.174;2023-05-27T08:00:31;15.30;;;6.43;;
1204;SDS011;592;48.764;9.174;2023-05-27T08:02:58;12.70;;;6.43;;
1204;SDS011;592;48.764;9.174;2023-05-27T08:05:24;13.77;;;5.73;;
1204;SDS011;592;48.764;9.174;2023-05-27T08:07:51;18.43;;;7.03;;
1204;SDS011;592;48.764;9.174;2023-05-27T08:10:18;14.00;;;5.80;;
1204;SDS011;592;48.764;9.174;2023-05-27T08:12:44;14.33;;;6.23;;
1204;SDS011;592;48.764;9.174;2023-05-27T08:15:12;16.90;;;7.10;;
1204;SDS011;592;48.764;9.174;2023-05-27T08:17:39;16.67;;;7.60;;
1204;SDS011;592;48.764;9.174;2023-05-27T08:20:08;18.57;;;6.73;;
1204;SDS011;592;48.764;9.174;2023-05-27T08:22:35;19.17;;;6.70;;
1204;SDS011;592;48.764;9.174;2023-05-27T08:25:02;17.20;;;6.83;;
1204;SDS011;592;48.764;9.174;2023-05-27T08:27:42;11.53;;;6.37;;
1204;SDS011;592;48.764;9.174;2023-05-27T08:30:14;14.10;;;6.93;;
1204;SDS011;592;48.764;9.174;2023-05-27T08:44:14;14.10;;;7.67;;
1204;SDS011;592;48.764;9.174;2023-05-27T08:46:52;14.40;;;7.40;;
1204;SDS011;592;48.764;9.174;2023-05-27T08:49:33;18.10;;;7.57;;
1204;SDS011;592;48.764;9.174;2023-05-27T08:52:00;16.27;;;6.73;;
1204;SDS011;592;48.764;9.174;2023-05-27T08:54:31;14.00;;;7.03;;
1204;SDS011;592;48.764;9.174;2023-05-27T08:57:03;10.70;;;6.60;;
1204;SDS011;592;48.764;9.174;2023-05-27T08:59:35;13.20;;;6.70;;
1204;SDS011;592;48.764;9.174;2023-05-27T09:02:04;14.10;;;6.93;;
1204;SDS011;592;48.764;9.174;2023-05-27T09:04:37;15.63;;;7.60;;
1204;SDS011;592;48.764;9.174;2023-05-27T09:15:06;15.47;;;6.80;;
1204;SDS011;592;48.764;9.174;2023-05-27T09:17:39;11.93;;;6.33;;
1204;SDS011;592;48.764;9.174;2023-05-27T09:20:07;15.57;;;7.13;;
1204;SDS011;592;48.764;9.174;2023-05-27T09:25:11;15.07;;;6.97;;
1204;SDS011;592;48.764;9.174;2023-05-27T09:27:42;12.07;;;7.03;;
1204;SDS011;592;48.764;9.174;2023-05-27T09:30:34;10.47;;;6.80;;
1204;SDS011;592;48.764;9.174;2023-05-27T09:33:03;13.57;;;7.33;;
1204;SDS011;592;48.764;9.174;2023-05-27T09:35:36;15.40;;;6.63;;
1204;SDS011;592;48.764;9.174;2023-05-27T09:40:39;15.00;;;7.50;;
1204;SDS011;592;48.764;9.174;2023-05-27T09:43:12;15.00;;;6.97;;
1204;SDS011;592;48.764;9.174;2023-05-27T09:45:40;14.37;;;7.50;;
1204;SDS011;592;48.764;9.174;2023-05-27T09:48:08;11.60;;;7.40;;
1204;SDS011;592;48.764;9.174;2023-05-27T09:50:37;15.00;;;7.47;;
1204;SDS011;592;48.764;9.174;2023-05-27T09:53:06;12.30;;;7.33;;
1204;SDS011;592;48.764;9.174;2023-05-27T09:55:33;10.40;;;6.97;;
1204;SDS011;592;48.764;9.174;2023-05-27T09:58:00;14.40;;;7.37;;
1204;SDS011;592;48.764;9.174;2023-05-27T10:00:27;17.80;;;7.50;;
1204;SDS011;592;48.764;9.174;2023-05-27T10:02:54;15.83;;;7.63;;
1204;SDS011;592;48.764;9.174;2023-05-27T10:10:45;11.60;;;7.50;;
1204;SDS011;592;48.764;9.174;2023-05-27T10:52:07;13.27;;;7.77;;
1204;SDS011;592;48.764;9.174;2023-05-27T10:54:37;15.00;;;7.83;;
1204;SDS011;592;48.764;9.174;2023-05-27T10:57:06;12.90;;;8.43;;
1204;SDS011;592;48.764;9.174;2023-05-27T10:59:39;13.47;;;7.40;;
1204;SDS011;592;48.764;9.174;2023-05-27T11:02:11;12.00;;;7.87;;
1204;SDS011;592;48.764;9.174;2023-05-27T11:04:44;13.83;;;7.97;;
1204;SDS011;592;48.764;9.174;2023-05-27T11:07:18;13.63;;;7.50;;
1204;SDS011;592;48.764;9.174;2023-05-27T11:09:46;13.73;;;7.93;;
1204;SDS011;592;48.764;9.174;2023-05-27T11:14:50;12.23;;;8.00;;
1204;SDS011;592;48.764;9.174;2023-05-27T11:17:17;12.03;;;7.60;;
1204;SDS011;592;48.764;9.174;2023-05-27T11:19:45;13.97;;;7.70;;
1204;SDS011;592;48.764;9.174;2023-05-27T11:22:12;16.00;;;7.70;;
1204;SDS011;592;48.764;9.174;2023-05-27T11:24:40;14.90;;;8.27;;
1204;SDS011;592;48.764;9.174;2023-05-27T11:29:48;9.50;;;6.80;;
1204;SDS011;592;48.764;9.174;2023-05-27T11:32:16;11.27;;;8.00;;
1204;SDS011;592;48.764;9.174;2023-05-27T11:34:43;11.40;;;7.70;;
1204;SDS011;592;48.764;9.174;2023-05-27T11:37:30;11.87;;;7.80;;
1204;SDS011;592;48.764;9.174;2023-05-27T11:39:58;12.40;;;7.57;;
1204;SDS011;592;48.764;9.174;2023-05-27T11:42:28;12.97;;;7.67;;
1204;SDS011;592;48.764;9.174;2023-05-27T11:44:56;11.67;;;7.47;;
1204;SDS011;592;48.764;9.174;2023-05-27T11:47:24;13.40;;;7.70;;
1204;SDS011;592;48.764;9.174;2023-05-27T11:49:51;11.60;;;7.73;;
1204;SDS011;592;48.764;9.174;2023-05-27T11:52:18;14.33;;;7.50;;
1204;SDS011;592;48.764;9.174;2023-05-27T11:54:48;11.47;;;7.20;;
1204;SDS011;592;48.764;9.174;2023-05-27T11:57:17;12.33;;;7.90;;
1204;SDS011;592;48.764;9.174;2023-05-27T11:59:44;11.57;;;8.33;;
1204;SDS011;592;48.764;9.174;2023-05-27T12:02:13;12.20;;;7.80;;
1204;SDS011;592;48.764;9.174;2023-05-27T12:04:39;14.60;;;8.13;;
1204;SDS011;592;48.764;9.174;2023-05-27T12:07:07;11.37;;;8.03;;
1204;SDS011;592;48.764;9.174;2023-05-27T12:09:33;13.27;;;8.83;;
1204;SDS011;592;48.764;9.174;2023-05-27T12:12:00;13.23;;;8.37;;
1204;SDS011;592;48.764;9.174;2023-05-27T12:14:28;10.90;;;7.37;;
1204;SDS011;592;48.764;9.174;2023-05-27T12:16:55;17.40;;;8.13;;
1204;SDS011;592;48.764;9.174;2023-05-27T12:19:22;12.53;;;8.93;;
1204;SDS011;592;48.764;9.174;2023-05-27T12:21:48;10.53;;;7.17;;
1204;SDS011;592;48.764;9.174;2023-05-27T12:24:15;13.30;;;7.90;;
1204;SDS011;592;48.764;9.174;2023-05-27T12:26:42;12.97;;;8.10;;
1204;SDS011;592;48.764;9.174;2023-05-27T12:29:10;16.03;;;7.97;;
1204;SDS011;592;48.764;9.174;2023-05-27T12:31:38;12.93;;;8.13;;
1204;SDS011;592;48.764;9.174;2023-05-27T12:34:05;13.03;;;8.83;;
1204;SDS011;592;48.764;9.174;2023-05-27T12:36:31;14.47;;;8.83;;
1204;SDS011;592;48.764;9.174;2023-05-27T12:38:58;11.60;;;8.87;;
1204;SDS011;592;48.764;9.174;2023-05-27T12:41:25;12.37;;;7.57;;
1204;SDS011;592;48.764;9.174;2023-05-27T12:43:52;14.03;;;9.00;;
1204;SDS011;592;48.764;9.174;2023-05-27T12:46:19;13.10;;;8.40;;
1204;SDS011;592;48.764;9.174;2023-05-27T12:48:47;13.63;;;8.30;;
1204;SDS011;592;48.764;9.174;2023-05-27T12:51:13;10.87;;;7.63;;
1204;SDS011;592;48.764;9.174;2023-05-27T12:53:40;13.73;;;8.57;;
1204;SDS011;592;48.764;9.174;2023-05-27T12:56:07;13.50;;;8.60;;
1204;SDS011;592;48.764;9.174;2023-05-27T12:58:33;13.00;;;9.20;;
1204;SDS011;592;48.764;9.174;2023-05-27T13:01:00;10.67;;;7.70;;
1204;SDS011;592;48.764;9.174;2023-05-27T13:03:27;11.90;;;8.17;;
1204;SDS011;592;48.764;9.174;2023-05-27T13:05:55;15.37;;;8.83;;
1204;SDS011;592;48.764;9.174;2023-05-27T13:08:22;12.20;;;8.77;;
1204;SDS011;592;48.764;9.174;2023-05-27T13:10:49;13.67;;;8.63;;
1204;SDS011;592;48.764;9.174;2023-05-27T13:13:16;14.50;;;8.00;;
1204;SDS011;592;48.764;9.174;2023-05-27T13:15:44;11.40;;;8.60;;
1204;SDS011;592;48.764;9.174;2023-05-27T13:18:11;12.90;;;8.20;;
1204;SDS011;592;48.764;9.174;2023-05-27T13:20:38;12.53;;;7.63;;
1204;SDS011;592;48.764;9.174;2023-05-27T13:23:06;13.53;;;8.50;;
1204;SDS011;592;48.764;9.174;2023-05-27T13:25:33;11.20;;;8.00;;
1204;SDS011;592;48.764;9.174;2023-05-27T13:27:59;12.37;;;7.87;;
1204;SDS011;592;48.764;9.174;2023-05-27T13:30:28;10.73;;;7.50;;
1204;SDS011;592;48.764;9.174;2023-05-27T13:32:55;13.97;;;8.70;;
1204;SDS011;592;48.764;9.174;2023-05-27T13:35:22;10.33;;;7.53;;
1204;SDS011;592;48.764;9.174;2023-05-27T13:37:48;14.53;;;8.27;;
1204;SDS011;592;48.764;9.174;2023-05-27T13:40:16;12.30;;;7.90;;
1204;SDS011;592;48.764;9.174;2023-05-27T13:42:43;11.37;;;7.90;;
1204;SDS011;592;48.764;9.174;2023-05-27T13:45:10;10.07;;;7.33;;
1204;SDS011;592;48.764;9.174;2023-05-27T13:47:37;12.47;;;6.97;;
1204;SDS011;592;48.764;9.174;2023-05-27T13:50:06;12.10;;;7.47;;
1204;SDS011;592;48.764;9.174;2023-05-27T13:52:33;10.93;;;7.13;;
1204;SDS011;592;48.764;9.174;2023-05-27T13:54:59;11.17;;;7.30;;
1204;SDS011;592;48.764;9.174;2023-05-27T13:57:28;12.70;;;7.73;;
1204;SDS011;592;48.764;9.174;2023-05-27T13:59:54;11.13;;;7.67;;
1204;SDS011;592;48.764;9.174;2023-05-27T14:02:21;11.40;;;7.40;;
1204;SDS011;592;48.764;9.174;2023-05-27T14:04:48;9.87;;;6.80;;
1204;SDS011;592;48.764;9.174;2023-05-27T14:07:15;10.93;;;6.97;;
1204;SDS011;592;48.764;9.174;2023-05-27T14:09:42;11.23;;;7.17;;
1204;SDS011;592;48.764;9.174;2023-05-27T14:12:08;9.50;;;6.60;;
1204;SDS011;592;48.764;9.174;2023-05-27T14:14:36;11.80;;;7.30;;
1204;SDS011;592;48.764;9.174;2023-05-27T14:17:03;10.07;;;6.53;;
1204;SDS011;592;48.764;9.174;2023-05-27T14:19:31;11.37;;;6.57;;
1204;SDS011;592;48.764;9.174;2023-05-27T14:22:00;9.27;;;6.23;;
1204;SDS011;592;48.764;9.174;2023-05-27T14:24:27;12.67;;;6.57;;
1204;SDS011;592;48.764;9.174;2023-05-27T14:26:53;11.60;;;7.07;;
1204;SDS011;592;48.764;9.174;2023-05-27T14:29:22;11.00;;;6.53;;
1204;SDS011;592;48.764;9.174;2023-05-27T14:31:50;10.37;;;6.10;;
1204;SDS011;592;48.764;9.174;2023-05-27T14:34:17;9.57;;;5.70;;
1204;SDS011;592;48.764;9.174;2023-05-27T14:36:43;10.63;;;6.83;;
1204;SDS011;592;48.764;9.174;2023-05-27T14:39:10;8.90;;;6.10;;
1204;SDS011;592;48.764;9.174;2023-05-27T14:41:37;8.70;;;5.50;;
1204;SDS011;592;48.764;9.174;2023-05-27T14:44:04;10.60;;;6.27;;
1204;SDS011;592;48.764;9.174;2023-05-27T14:46:31;10.20;;;6.13;;
1204;SDS011;592;48.764;9.174;2023-05-27T14:49:01;7.87;;;5.10;;
1204;SDS011;592;48.764;9.174;2023-05-27T14:51:31;8.47;;;5.97;;
1204;SDS011;592;48.764;9.174;2023-05-27T14:53:58;8.60;;;5.20;;
1204;SDS011;592;48.764;9.174;2023-05-27T14:56:25;10.33;;;5.10;;
1204;SDS011;592;48.764;9.174;2023-05-27T14:58:52;9.47;;;4.80;;
1204;SDS011;592;48.764;9.174;2023-05-27T15:01:19;9.30;;;5.53;;
1204;SDS011;592;48.764;9.174;2023-05-27T15:03:45;8.27;;;5.00;;
1204;SDS011;592;48.764;9.174;2023-05-27T15:06:14;7.50;;;5.27;;
1204;SDS011;592;48.764;9.174;2023-05-27T15:08:40;8.40;;;5.60;;
1204;SDS011;592;48.764;9.174;2023-05-27T15:11:07;11.77;;;5.60;;
1204;SDS011;592;48.764;9.174;2023-05-27T15:13:34;8.73;;;5.67;;
1204;SDS011;592;48.764;9.174;2023-05-27T15:16:01;7.63;;;4.83;;
1204;SDS011;592;48.764;9.174;2023-05-27T15:18:28;9.47;;;5.73;;
1204;SDS011;592;48.764;9.174;2023-05-27T15:20:55;11.40;;;5.30;;
1204;SDS011;592;48.764;9.174;2023-05-27T15:23:23;8.77;;;5.10;;
1204;SDS011;592;48.764;9.174;2023-05-27T15:25:50;11.87;;;5.80;;
1204;SDS011;592;48.764;9.174;2023-05-27T15:28:18;10.23;;;6.03;;
1204;SDS011;592;48.764;9.174;2023-05-27T15:30:44;7.47;;;5.07;;
1204;SDS011;592;48.764;9.174;2023-05-27T15:33:12;10.63;;;5.43;;
1204;SDS011;592;48.764;9.174;2023-05-27T15:35:40;8.10;;;5.27;;
1204;SDS011;592;48.764;9.174;2023-05-27T15:38:08;9.13;;;5.70;;
1204;SDS011;592;48.764;9.174;2023-05-27T15:40:41;8.43;;;4.70;;
1204;SDS011;592;48.764;9.174;2023-05-27T15:43:10;9.87;;;5.57;;
1204;SDS011;592;48.764;9.174;2023-05-27T15:45:38;11.60;;;5.60;;
1204;SDS011;592;48.764;9.174;2023-05-27T15:48:05;11.50;;;5.67;;
1204;SDS011;592;48.764;9.174;2023-05-27T15:50:32;11.37;;;5.20;;
1204;SDS011;592;48.764;9.174;2023-05-27T15:52:58;9.57;;;6.10;;
1204;SDS011;592;48.764;9.174;2023-05-27T15:55:25;9.40;;;5.07;;
1204;SDS011;592;48.764;9.174;2023-05-27T15:57:53;10.07;;;5.60;;
1204;SDS011;592;48.764;9.174;2023-05-27T16:00:20;9.80;;;5.97;;
1204;SDS011;592;48.764;9.174;2023-05-27T16:02:47;10.53;;;5.23;;
1204;SDS011;592;48.764;9.174;2023-05-27T16:05:13;8.57;;;4.67;;
1204;SDS011;592;48.764;9.174;2023-05-27T16:07:40;10.80;;;5.80;;
1204;SDS011;592;48.764;9.174;2023-05-27T16:10:09;7.33;;;5.13;;
1204;SDS011;592;48.764;9.174;2023-05-27T16:12:38;9.20;;;5.50;;
1204;SDS011;592;48.764;9.174;2023-05-27T16:15:08;10.10;;;5.60;;
1204;SDS011;592;48.764;9.174;2023-05-27T16:17:36;11.27;;;5.70;;
1204;SDS011;592;48.764;9.174;2023-05-27T16:20:03;8.90;;;5.20;;
1204;SDS011;592;48.764;9.174;2023-05-27T16:22:31;7.90;;;5.20;;
1204;SDS011;592;48.764;9.174;2023-05-27T16:24:58;11.17;;;5.70;;
1204;SDS011;592;48.764;9.174;2023-05-27T16:27:25;9.97;;;5.30;;
1204;SDS011;592;48.764;9.174;2023-05-27T16:29:52;8.37;;;5.13;;
1204;SDS011;592;48.764;9.174;2023-05-27T16:32:20;12.10;;;5.40;;
1204;SDS011;592;48.764;9.174;2023-05-27T16:34:47;9.77;;;5.23;;